createdAt,value
2023-03-18T00:01:10.741Z,23.73
2023-03-18T00:06:16.731Z,21.03
2023-03-18T00:11:21.511Z,22.13
2023-03-18T00:16:24.235Z,20.37
2023-03-18T00:21:27.085Z,21.13
2023-03-18T00:26:29.783Z,21.87
2023-03-18T00:31:32.132Z,21.73
2023-03-18T00:36:34.679Z,19.67
2023-03-18T00:41:38.156Z,20.30
2023-03-18T00:46:40.994Z,19.47
2023-03-18T00:51:43.767Z,21.30
2023-03-18T00:56:46.336Z,24.17
2023-03-18T01:01:48.897Z,19.80
2023-03-18T01:06:53.270Z,27.10
2023-03-18T01:11:55.655Z,19.80
2023-03-18T01:16:58.158Z,24.50
2023-03-18T01:22:01.525Z,25.50
2023-03-18T01:27:06.306Z,22.50
2023-03-18T01:32:10.709Z,24.57
2023-03-18T01:37:13.810Z,26.50
2023-03-18T01:42:20.214Z,20.53
2023-03-18T01:47:23.353Z,18.13
2023-03-18T01:52:32.192Z,20.80
2023-03-18T01:57:35.985Z,21.03
2023-03-18T02:02:40.307Z,20.53
2023-03-18T02:07:44.226Z,21.97
2023-03-18T02:12:50.883Z,20.60
2023-03-18T02:18:10.884Z,20.97
2023-03-18T02:23:29.798Z,17.80
2023-03-18T02:28:33.800Z,23.27
2023-03-18T02:33:39.570Z,22.53
2023-03-18T02:38:44.182Z,22.57
2023-03-18T02:43:50.717Z,22.87
2023-03-18T02:48:53.952Z,20.80
2023-03-18T02:54:02.685Z,20.80
2023-03-18T02:59:05.786Z,22.03
2023-03-18T03:04:09.212Z,17.03
2023-03-18T03:09:15.302Z,19.43
2023-03-18T03:14:18.258Z,23.27
2023-03-18T03:19:23.789Z,34.37
2023-03-18T03:24:26.485Z,23.23
2023-03-18T03:29:29.303Z,21.60
2023-03-18T03:34:31.674Z,19.30
2023-03-18T03:39:33.983Z,22.83
2023-03-18T03:44:36.537Z,23.73
2023-03-18T03:49:39.119Z,21.03
2023-03-18T03:54:41.953Z,24.10
2023-03-18T03:59:44.728Z,24.77
2023-03-18T04:04:51.661Z,26.40
2023-03-18T04:10:04.332Z,23.90
2023-03-18T04:15:08.254Z,21.60
2023-03-18T04:20:12.768Z,21.70
2023-03-18T04:25:15.472Z,25.93
2023-03-18T04:30:18.017Z,25.07
2023-03-18T04:35:43.577Z,21.07
2023-03-18T04:40:47.984Z,22.20
2023-03-18T04:45:50.788Z,18.23
2023-03-18T04:50:54.803Z,20.70
2023-03-18T04:56:01.800Z,38.70
2023-03-18T05:01:13.801Z,28.77
2023-03-18T05:06:26.954Z,25.70
2023-03-18T05:11:33.209Z,31.03
2023-03-18T05:16:43.338Z,24.60
2023-03-18T05:21:46.318Z,23.33
2023-03-18T05:26:49.474Z,23.47
2023-03-18T05:31:53.755Z,20.50
2023-03-18T05:36:57.722Z,23.53
2023-03-18T05:42:02.282Z,23.90
2023-03-18T05:47:05.448Z,20.70
2023-03-18T05:52:32.006Z,29.93
2023-03-18T05:57:38.785Z,19.50
2023-03-18T06:02:45.146Z,18.00
2023-03-18T06:07:49.211Z,25.03
2023-03-18T06:12:52.118Z,19.73
2023-03-18T06:17:54.483Z,38.97
2023-03-18T06:22:56.957Z,30.57
2023-03-18T06:28:01.992Z,21.97
2023-03-18T06:33:06.101Z,20.87
2023-03-18T06:38:10.719Z,66.60
2023-03-18T06:43:15.837Z,51.83
2023-03-18T06:48:20.344Z,71.83
2023-03-18T06:53:24.134Z,41.57
2023-03-18T06:58:27.438Z,28.63
2023-03-18T07:03:38.983Z,49.70
2023-03-18T07:08:42.633Z,20.93
2023-03-18T07:13:45.375Z,18.57
2023-03-18T07:18:54.939Z,24.70
2023-03-18T07:23:58.233Z,32.07
2023-03-18T07:29:00.723Z,12.67
2023-03-18T07:34:03.475Z,15.90
2023-03-18T07:39:07.902Z,13.53
2023-03-18T07:44:10.307Z,24.13
2023-03-18T07:49:12.602Z,14.03
2023-03-18T07:54:14.921Z,15.73
2023-03-18T07:59:18.661Z,16.67
2023-03-18T08:04:21.394Z,16.63
2023-03-18T08:09:24.283Z,18.37
2023-03-18T08:14:26.669Z,14.97
2023-03-18T08:19:29.647Z,16.07
2023-03-18T08:24:32.687Z,21.87
2023-03-18T08:29:35.422Z,22.67
2023-03-18T08:34:37.830Z,17.10
2023-03-18T08:39:41.317Z,162.07
2023-03-18T08:44:43.629Z,17.00
2023-03-18T08:49:46.243Z,13.30
2023-03-18T08:54:49.316Z,15.10
2023-03-18T08:59:51.914Z,10.67
2023-03-18T09:04:55.456Z,12.30
2023-03-18T09:09:57.711Z,15.17
2023-03-18T09:15:00.017Z,13.90
2023-03-18T09:20:02.713Z,9.87
2023-03-18T09:25:06.439Z,21.03
2023-03-18T09:30:09.431Z,10.80
2023-03-18T09:35:13.433Z,41.77
2023-03-18T09:40:28.960Z,13.80
2023-03-18T09:45:48.581Z,19.40
2023-03-18T09:51:09.007Z,12.30
2023-03-18T09:56:19.090Z,60.10
2023-03-18T10:01:24.327Z,15.10
2023-03-18T10:06:27.883Z,11.57
2023-03-18T10:11:42.922Z,16.63
2023-03-18T10:17:10.946Z,23.77
2023-03-18T10:22:16.416Z,16.47
2023-03-18T10:27:42.858Z,18.57
2023-03-18T10:32:53.484Z,59.93
2023-03-18T10:38:21.485Z,23.10
2023-03-18T10:43:29.122Z,26.13
2023-03-18T10:48:39.698Z,50.80
2023-03-18T10:54:03.709Z,46.00
2023-03-18T10:59:13.168Z,17.10
2023-03-18T11:04:19.101Z,63.03
2023-03-18T11:09:29.409Z,17.13
2023-03-18T11:14:32.517Z,14.60
2023-03-18T11:19:48.673Z,27.77
2023-03-18T11:25:11.896Z,35.40
2023-03-18T11:30:34.021Z,13.73
2023-03-18T11:35:46.198Z,17.80
2023-03-18T11:40:48.678Z,12.77
2023-03-18T11:46:05.098Z,105.30
2023-03-18T11:51:27.478Z,51.37
2023-03-18T11:56:34.267Z,76.47
2023-03-18T12:01:42.780Z,22.17
2023-03-18T12:07:15.504Z,16.17
2023-03-18T12:12:52.160Z,21.43
2023-03-18T12:18:09.620Z,13.30
2023-03-18T12:23:30.354Z,12.83
2023-03-18T12:28:53.056Z,64.80
2023-03-18T12:34:01.546Z,64.83
2023-03-18T12:39:22.843Z,15.07
2023-03-18T12:44:45.603Z,11.80
2023-03-18T12:50:17.933Z,8.77
2023-03-18T12:55:33.916Z,10.43
2023-03-18T13:00:49.123Z,17.40
2023-03-18T13:06:10.272Z,11.53
2023-03-18T13:11:32.511Z,12.63
2023-03-18T13:16:37.588Z,9.33
2023-03-18T13:21:44.870Z,12.00
2023-03-18T13:27:12.436Z,10.60
2023-03-18T13:32:30.312Z,68.03
2023-03-18T13:37:50.549Z,17.47
2023-03-18T13:42:59.065Z,11.57
2023-03-18T13:48:18.293Z,12.97
2023-03-18T13:53:42.911Z,31.47
2023-03-18T13:58:52.426Z,39.10
2023-03-18T14:03:58.722Z,26.67
2023-03-18T14:09:29.641Z,10.07
2023-03-18T14:14:51.355Z,8.60
2023-03-18T14:19:55.889Z,20.57
2023-03-18T14:25:13.284Z,17.73
2023-03-18T14:30:31.633Z,30.80
2023-03-18T14:35:47.812Z,11.23
2023-03-18T14:40:54.406Z,13.10
2023-03-18T14:46:02.859Z,10.37
2023-03-18T14:51:19.123Z,15.97
2023-03-18T14:56:29.502Z,12.73
2023-03-18T15:01:38.692Z,13.20
2023-03-18T15:06:41.572Z,13.40
2023-03-18T15:11:46.624Z,16.03
2023-03-18T15:16:50.989Z,87.83
2023-03-18T15:21:54.923Z,91.97
2023-03-18T15:27:00.207Z,31.83
2023-03-18T15:32:20.842Z,134.77
2023-03-18T15:37:34.178Z,27.73
2023-03-18T15:42:36.575Z,26.60
2023-03-18T15:47:43.501Z,28.77
2023-03-18T15:52:47.346Z,41.30
2023-03-18T15:57:53.371Z,19.73
2023-03-18T16:02:55.824Z,19.00
2023-03-18T16:07:59.417Z,327.90
2023-03-18T16:13:02.406Z,172.27
2023-03-18T16:18:05.009Z,148.17
2023-03-18T16:23:07.685Z,32.60
2023-03-18T16:28:25.995Z,437.50
2023-03-18T16:33:34.876Z,238.70
2023-03-18T16:38:37.772Z,61.90
2023-03-18T16:43:40.350Z,62.30
2023-03-18T16:48:42.658Z,30.83
2023-03-18T16:53:45.007Z,169.67
2023-03-18T16:58:47.334Z,82.23
2023-03-18T17:03:49.719Z,71.20
2023-03-18T17:08:53.437Z,103.07
2023-03-18T17:13:56.377Z,66.70
2023-03-18T17:18:58.994Z,48.93
2023-03-18T17:24:01.313Z,99.13
2023-03-18T17:29:04.883Z,103.17
2023-03-18T17:34:13.806Z,212.70
2023-03-18T17:39:16.446Z,94.90
2023-03-18T17:44:30.322Z,86.57
2023-03-18T17:49:32.704Z,173.90
2023-03-18T17:54:35.464Z,338.87
2023-03-18T17:59:37.778Z,129.07
2023-03-18T18:04:42.539Z,108.47
2023-03-18T18:09:46.050Z,97.97
2023-03-18T18:14:48.805Z,85.60
2023-03-18T18:19:51.346Z,102.37
2023-03-18T18:24:54.452Z,90.83
2023-03-18T18:29:56.958Z,160.23
2023-03-18T18:34:59.241Z,209.03
2023-03-18T18:40:01.596Z,180.77
2023-03-18T18:45:05.074Z,113.90
2023-03-18T18:50:13.026Z,104.50
2023-03-18T18:55:15.458Z,88.10
2023-03-18T19:00:21.900Z,72.73
2023-03-18T19:05:24.433Z,69.27
2023-03-18T19:10:26.747Z,77.27
2023-03-18T19:15:29.166Z,69.40
2023-03-18T19:20:31.624Z,69.33
2023-03-18T19:25:34.272Z,69.60
2023-03-18T19:30:37.200Z,66.17
2023-03-18T19:35:41.320Z,64.07
2023-03-18T19:40:43.848Z,66.50
2023-03-18T19:45:51.857Z,62.97
2023-03-18T19:50:56.711Z,63.33
2023-03-18T19:56:00.409Z,97.27
2023-03-18T20:01:04.206Z,112.73
2023-03-18T20:06:08.025Z,92.60
2023-03-18T20:11:16.366Z,85.17
2023-03-18T20:16:19.628Z,79.97
2023-03-18T20:21:30.958Z,73.73
2023-03-18T20:26:33.377Z,72.67
2023-03-18T20:31:36.596Z,86.53
2023-03-18T20:36:39.989Z,74.80
2023-03-18T20:41:42.338Z,86.53
2023-03-18T20:46:44.755Z,117.97
2023-03-18T20:51:47.145Z,131.57
2023-03-18T20:56:49.529Z,125.80
2023-03-18T21:01:52.036Z,107.40
2023-03-18T21:06:54.385Z,103.77
2023-03-18T21:11:56.678Z,88.97
2023-03-18T21:16:59.064Z,80.80
2023-03-18T21:22:01.574Z,79.90
2023-03-18T21:27:05.700Z,77.17
2023-03-18T21:32:29.925Z,144.47
2023-03-18T21:37:32.319Z,153.53
2023-03-18T21:42:35.446Z,162.43
2023-03-18T21:47:37.765Z,157.20
2023-03-18T21:52:40.150Z,123.47
2023-03-18T21:57:42.876Z,93.20
2023-03-18T22:02:45.412Z,92.00
2023-03-18T22:07:48.582Z,81.87
2023-03-18T22:12:51.303Z,271.87
2023-03-18T22:17:53.594Z,127.27
2023-03-18T22:22:56.337Z,261.87
2023-03-18T22:27:59.504Z,206.87
2023-03-18T22:33:03.770Z,194.10
2023-03-18T22:38:06.136Z,193.73
2023-03-18T22:43:21.934Z,184.60
2023-03-18T22:48:24.451Z,153.13
2023-03-18T22:53:34.204Z,155.13
2023-03-18T22:58:36.580Z,183.80
2023-03-18T23:03:40.499Z,187.50
2023-03-18T23:08:43.362Z,176.33
2023-03-18T23:13:49.960Z,179.73
2023-03-18T23:18:52.595Z,173.93
2023-03-18T23:23:56.775Z,144.30
2023-03-18T23:28:59.125Z,150.07
2023-03-18T23:34:01.441Z,170.63
2023-03-18T23:39:03.998Z,154.43
2023-03-18T23:44:06.800Z,174.10
2023-03-18T23:49:09.131Z,141.33
2023-03-18T23:54:11.868Z,170.67
2023-03-18T23:59:14.128Z,151.33
